sensor_id;sensor_type;location;lat;lon;timestamp;P1;durP1;ratioP1;P2;durP2;ratioP2
9447;SDS011;4762;48.128;11.376;2024-01-06T00:00:43;6.10;;;3.27;;
9447;SDS011;4762;48.128;11.376;2024-01-06T00:02:45;7.80;;;3.20;;
9447;SDS011;4762;48.128;11.376;2024-01-06T00:04:48;5.47;;;3.87;;
9447;SDS011;4762;48.128;11.376;2024-01-06T00:06:50;6.17;;;2.90;;
9447;SDS011;4762;48.128;11.376;2024-01-06T00:08:54;4.50;;;3.50;;
9447;SDS011;4762;48.128;11.376;2024-01-06T00:10:56;4.30;;;3.17;;
9447;SDS011;4762;48.128;11.376;2024-01-06T00:12:59;4.90;;;3.20;;
9447;SDS011;4762;48.128;11.376;2024-01-06T00:15:02;4.27;;;3.03;;
9447;SDS011;4762;48.128;11.376;2024-01-06T00:17:04;4.07;;;3.00;;
9447;SDS011;4762;48.128;11.376;2024-01-06T00:19:07;5.53;;;2.97;;
9447;SDS011;4762;48.128;11.376;2024-01-06T00:21:10;3.83;;;3.17;;
9447;SDS011;4762;48.128;11.376;2024-01-06T00:23:12;3.17;;;2.87;;
9447;SDS011;4762;48.128;11.376;2024-01-06T00:25:15;4.47;;;2.80;;
9447;SDS011;4762;48.128;11.376;2024-01-06T00:27:17;6.13;;;2.70;;
9447;SDS011;4762;48.128;11.376;2024-01-06T00:29:19;5.87;;;3.60;;
9447;SDS011;4762;48.128;11.376;2024-01-06T00:31:23;4.63;;;2.90;;
9447;SDS011;4762;48.128;11.376;2024-01-06T00:33:25;4.80;;;3.00;;
9447;SDS011;4762;48.128;11.376;2024-01-06T00:35:28;5.60;;;3.00;;
9447;SDS011;4762;48.128;11.376;2024-01-06T00:37:30;2.80;;;2.43;;
9447;SDS011;4762;48.128;11.376;2024-01-06T00:39:32;6.30;;;3.17;;
9447;SDS011;4762;48.128;11.376;2024-01-06T00:41:34;3.70;;;2.97;;
9447;SDS011;4762;48.128;11.376;2024-01-06T00:43:37;4.07;;;2.93;;
9447;SDS011;4762;48.128;11.376;2024-01-06T00:45:39;3.30;;;2.57;;
9447;SDS011;4762;48.128;11.376;2024-01-06T00:47:42;5.80;;;3.00;;
9447;SDS011;4762;48.128;11.376;2024-01-06T00:49:44;3.57;;;3.00;;
9447;SDS011;4762;48.128;11.376;2024-01-06T00:51:48;5.67;;;3.60;;
9447;SDS011;4762;48.128;11.376;2024-01-06T00:53:50;5.03;;;3.20;;
9447;SDS011;4762;48.128;11.376;2024-01-06T00:55:54;7.17;;;4.60;;
9447;SDS011;4762;48.128;11.376;2024-01-06T00:57:56;9.50;;;3.80;;
9447;SDS011;4762;48.128;11.376;2024-01-06T00:59:58;4.27;;;3.40;;
9447;SDS011;4762;48.128;11.376;2024-01-06T01:02:00;3.20;;;2.80;;
9447;SDS011;4762;48.128;11.376;2024-01-06T01:04:03;5.70;;;3.37;;
9447;SDS011;4762;48.128;11.376;2024-01-06T01:06:05;7.80;;;4.30;;
9447;SDS011;4762;48.128;11.376;2024-01-06T01:08:07;7.60;;;4.00;;
9447;SDS011;4762;48.128;11.376;2024-01-06T01:10:09;5.40;;;3.93;;
9447;SDS011;4762;48.128;11.376;2024-01-06T01:12:11;6.40;;;4.27;;
9447;SDS011;4762;48.128;11.376;2024-01-06T01:14:14;5.13;;;3.87;;
9447;SDS011;4762;48.128;11.376;2024-01-06T01:16:16;4.93;;;3.60;;
9447;SDS011;4762;48.128;11.376;2024-01-06T01:18:19;7.10;;;3.70;;
9447;SDS011;4762;48.128;11.376;2024-01-06T01:20:21;4.23;;;3.27;;
9447;SDS011;4762;48.128;11.376;2024-01-06T01:22:23;7.60;;;3.60;;
9447;SDS011;4762;48.128;11.376;2024-01-06T01:24:25;6.20;;;3.90;;
9447;SDS011;4762;48.128;11.376;2024-01-06T01:26:27;6.07;;;3.77;;
9447;SDS011;4762;48.128;11.376;2024-01-06T01:28:30;8.13;;;4.90;;
9447;SDS011;4762;48.128;11.376;2024-01-06T01:30:33;7.00;;;3.53;;
9447;SDS011;4762;48.128;11.376;2024-01-06T01:32:35;5.80;;;4.20;;
9447;SDS011;4762;48.128;11.376;2024-01-06T01:34:37;4.00;;;3.37;;
9447;SDS011;4762;48.128;11.376;2024-01-06T01:36:39;5.43;;;4.13;;
9447;SDS011;4762;48.128;11.376;2024-01-06T01:38:41;10.17;;;4.50;;
9447;SDS011;4762;48.128;11.376;2024-01-06T01:40:44;7.90;;;4.97;;
9447;SDS011;4762;48.128;11.376;2024-01-06T01:42:46;6.53;;;4.60;;
9447;SDS011;4762;48.128;11.376;2024-01-06T01:44:48;7.57;;;4.07;;
9447;SDS011;4762;48.128;11.376;2024-01-06T01:46:50;8.10;;;5.83;;
9447;SDS011;4762;48.128;11.376;2024-01-06T01:48:53;8.50;;;4.83;;
9447;SDS011;4762;48.128;11.376;2024-01-06T01:50:55;8.43;;;5.70;;
9447;SDS011;4762;48.128;11.376;2024-01-06T01:52:58;10.40;;;5.20;;
9447;SDS011;4762;48.128;11.376;2024-01-06T01:55:00;4.90;;;4.10;;
9447;SDS011;4762;48.128;11.376;2024-01-06T01:57:02;10.93;;;5.60;;
9447;SDS011;4762;48.128;11.376;2024-01-06T01:59:06;6.37;;;4.87;;
9447;SDS011;4762;48.128;11.376;2024-01-06T02:01:08;7.97;;;4.23;;
9447;SDS011;4762;48.128;11.376;2024-01-06T02:03:10;7.33;;;5.03;;
9447;SDS011;4762;48.128;11.376;2024-01-06T02:05:12;9.30;;;4.00;;
9447;SDS011;4762;48.128;11.376;2024-01-06T02:07:14;5.77;;;4.47;;
9447;SDS011;4762;48.128;11.376;2024-01-06T02:09:16;7.40;;;4.70;;
9447;SDS011;4762;48.128;11.376;2024-01-06T02:11:18;7.80;;;4.93;;
9447;SDS011;4762;48.128;11.376;2024-01-06T02:13:21;6.00;;;4.23;;
9447;SDS011;4762;48.128;11.376;2024-01-06T02:15:23;8.03;;;4.20;;
9447;SDS011;4762;48.128;11.376;2024-01-06T02:17:26;5.63;;;4.17;;
9447;SDS011;4762;48.128;11.376;2024-01-06T02:19:28;4.73;;;3.60;;
9447;SDS011;4762;48.128;11.376;2024-01-06T02:21:30;7.40;;;5.10;;
9447;SDS011;4762;48.128;11.376;2024-01-06T02:23:34;6.70;;;4.20;;
9447;SDS011;4762;48.128;11.376;2024-01-06T02:25:34;5.60;;;4.10;;
9447;SDS011;4762;48.128;11.376;2024-01-06T02:27:38;5.50;;;4.27;;
9447;SDS011;4762;48.128;11.376;2024-01-06T02:29:40;4.57;;;3.80;;
9447;SDS011;4762;48.128;11.376;2024-01-06T02:31:43;8.50;;;4.53;;
9447;SDS011;4762;48.128;11.376;2024-01-06T02:33:45;8.10;;;4.20;;
9447;SDS011;4762;48.128;11.376;2024-01-06T02:35:47;7.70;;;3.80;;
9447;SDS011;4762;48.128;11.376;2024-01-06T02:37:49;6.20;;;3.90;;
9447;SDS011;4762;48.128;11.376;2024-01-06T02:39:52;5.03;;;3.53;;
9447;SDS011;4762;48.128;11.376;2024-01-06T02:41:54;3.93;;;3.40;;
9447;SDS011;4762;48.128;11.376;2024-01-06T02:43:57;6.70;;;3.87;;
9447;SDS011;4762;48.128;11.376;2024-01-06T02:45:59;5.00;;;3.87;;
9447;SDS011;4762;48.128;11.376;2024-01-06T02:48:01;3.07;;;2.30;;
9447;SDS011;4762;48.128;11.376;2024-01-06T02:50:04;4.63;;;3.20;;
9447;SDS011;4762;48.128;11.376;2024-01-06T02:52:06;3.00;;;1.93;;
9447;SDS011;4762;48.128;11.376;2024-01-06T02:54:08;3.30;;;2.17;;
9447;SDS011;4762;48.128;11.376;2024-01-06T02:56:12;3.23;;;2.40;;
9447;SDS011;4762;48.128;11.376;2024-01-06T02:58:14;4.40;;;2.10;;
9447;SDS011;4762;48.128;11.376;2024-01-06T03:00:16;3.83;;;1.57;;
9447;SDS011;4762;48.128;11.376;2024-01-06T03:02:18;6.67;;;2.70;;
9447;SDS011;4762;48.128;11.376;2024-01-06T03:04:21;4.30;;;2.57;;
9447;SDS011;4762;48.128;11.376;2024-01-06T03:06:23;3.70;;;2.53;;
9447;SDS011;4762;48.128;11.376;2024-01-06T03:08:25;2.50;;;1.50;;
9447;SDS011;4762;48.128;11.376;2024-01-06T03:10:27;3.07;;;2.20;;
9447;SDS011;4762;48.128;11.376;2024-01-06T03:12:29;2.50;;;1.80;;
9447;SDS011;4762;48.128;11.376;2024-01-06T03:14:32;2.50;;;1.40;;
9447;SDS011;4762;48.128;11.376;2024-01-06T03:16:34;1.67;;;1.10;;
9447;SDS011;4762;48.128;11.376;2024-01-06T03:18:36;1.97;;;1.20;;
9447;SDS011;4762;48.128;11.376;2024-01-06T03:20:38;1.40;;;1.13;;
9447;SDS011;4762;48.128;11.376;2024-01-06T03:22:45;3.60;;;1.40;;
9447;SDS011;4762;48.128;11.376;2024-01-06T03:24:47;2.40;;;1.37;;
9447;SDS011;4762;48.128;11.376;2024-01-06T03:26:50;1.93;;;1.07;;
9447;SDS011;4762;48.128;11.376;2024-01-06T03:28:54;1.57;;;0.60;;
9447;SDS011;4762;48.128;11.376;2024-01-06T03:30:55;1.20;;;0.70;;
9447;SDS011;4762;48.128;11.376;2024-01-06T03:32:57;1.53;;;0.60;;
9447;SDS011;4762;48.128;11.376;2024-01-06T03:35:00;1.50;;;0.63;;
9447;SDS011;4762;48.128;11.376;2024-01-06T03:37:02;1.63;;;0.80;;
9447;SDS011;4762;48.128;11.376;2024-01-06T03:39:04;1.10;;;0.60;;
9447;SDS011;4762;48.128;11.376;2024-01-06T03:41:09;1.10;;;0.60;;
9447;SDS011;4762;48.128;11.376;2024-01-06T03:43:11;3.00;;;0.80;;
9447;SDS011;4762;48.128;11.376;2024-01-06T03:45:13;1.57;;;0.67;;
9447;SDS011;4762;48.128;11.376;2024-01-06T03:47:16;1.67;;;0.80;;
9447;SDS011;4762;48.128;11.376;2024-01-06T03:49:18;1.23;;;0.50;;
9447;SDS011;4762;48.128;11.376;2024-01-06T03:51:20;1.10;;;0.60;;
9447;SDS011;4762;48.128;11.376;2024-01-06T03:53:22;1.20;;;0.60;;
9447;SDS011;4762;48.128;11.376;2024-01-06T03:55:24;1.37;;;0.53;;
9447;SDS011;4762;48.128;11.376;2024-01-06T03:57:27;1.00;;;0.50;;
9447;SDS011;4762;48.128;11.376;2024-01-06T03:59:29;1.10;;;0.50;;
9447;SDS011;4762;48.128;11.376;2024-01-06T04:01:31;1.30;;;0.77;;
9447;SDS011;4762;48.128;11.376;2024-01-06T04:03:34;2.80;;;1.43;;
9447;SDS011;4762;48.128;11.376;2024-01-06T04:05:36;2.40;;;1.63;;
9447;SDS011;4762;48.128;11.376;2024-01-06T04:07:39;1.47;;;1.10;;
9447;SDS011;4762;48.128;11.376;2024-01-06T04:09:42;2.23;;;1.50;;
9447;SDS011;4762;48.128;11.376;2024-01-06T04:11:43;1.90;;;1.27;;
9447;SDS011;4762;48.128;11.376;2024-01-06T04:13:46;2.27;;;1.40;;
9447;SDS011;4762;48.128;11.376;2024-01-06T04:15:48;1.73;;;1.53;;
9447;SDS011;4762;48.128;11.376;2024-01-06T04:17:52;2.43;;;2.23;;
9447;SDS011;4762;48.128;11.376;2024-01-06T04:20:06;3.27;;;1.90;;
9447;SDS011;4762;48.128;11.376;2024-01-06T04:22:10;1.97;;;1.40;;
9447;SDS011;4762;48.128;11.376;2024-01-06T04:24:15;3.57;;;1.90;;
9447;SDS011;4762;48.128;11.376;2024-01-06T04:26:17;3.40;;;1.57;;
9447;SDS011;4762;48.128;11.376;2024-01-06T04:28:22;1.87;;;1.20;;
9447;SDS011;4762;48.128;11.376;2024-01-06T04:30:25;1.50;;;0.90;;
9447;SDS011;4762;48.128;11.376;2024-01-06T04:32:27;9.33;;;1.00;;
9447;SDS011;4762;48.128;11.376;2024-01-06T04:34:29;1.50;;;0.80;;
9447;SDS011;4762;48.128;11.376;2024-01-06T04:36:32;1.10;;;0.60;;
9447;SDS011;4762;48.128;11.376;2024-01-06T04:38:34;1.47;;;0.60;;
9447;SDS011;4762;48.128;11.376;2024-01-06T04:40:36;1.00;;;0.40;;
9447;SDS011;4762;48.128;11.376;2024-01-06T04:42:38;1.00;;;0.50;;
9447;SDS011;4762;48.128;11.376;2024-01-06T04:44:40;1.00;;;0.47;;
9447;SDS011;4762;48.128;11.376;2024-01-06T04:46:43;1.00;;;0.40;;
9447;SDS011;4762;48.128;11.376;2024-01-06T04:48:46;1.77;;;0.40;;
9447;SDS011;4762;48.128;11.376;2024-01-06T04:50:48;1.10;;;0.40;;
9447;SDS011;4762;48.128;11.376;2024-01-06T04:52:50;1.20;;;0.53;;
9447;SDS011;4762;48.128;11.376;2024-01-06T04:54:52;1.10;;;0.53;;
9447;SDS011;4762;48.128;11.376;2024-01-06T04:56:54;2.80;;;0.57;;
9447;SDS011;4762;48.128;11.376;2024-01-06T04:58:57;1.10;;;0.50;;
9447;SDS011;4762;48.128;11.376;2024-01-06T05:00:59;1.20;;;0.60;;
9447;SDS011;4762;48.128;11.376;2024-01-06T05:03:01;1.10;;;0.43;;
9447;SDS011;4762;48.128;11.376;2024-01-06T05:05:03;1.20;;;0.50;;
9447;SDS011;4762;48.128;11.376;2024-01-06T05:07:06;1.20;;;0.50;;
9447;SDS011;4762;48.128;11.376;2024-01-06T05:09:08;1.00;;;0.40;;
9447;SDS011;4762;48.128;11.376;2024-01-06T05:11:11;1.10;;;0.50;;
9447;SDS011;4762;48.128;11.376;2024-01-06T05:13:14;1.00;;;0.40;;
9447;SDS011;4762;48.128;11.376;2024-01-06T05:15:16;1.10;;;0.40;;
9447;SDS011;4762;48.128;11.376;2024-01-06T05:17:19;1.10;;;0.57;;
9447;SDS011;4762;48.128;11.376;2024-01-06T05:19:21;1.00;;;0.50;;
9447;SDS011;4762;48.128;11.376;2024-01-06T05:21:23;1.10;;;0.40;;
9447;SDS011;4762;48.128;11.376;2024-01-06T05:23:25;1.00;;;0.40;;
9447;SDS011;4762;48.128;11.376;2024-01-06T05:25:28;1.10;;;0.40;;
9447;SDS011;4762;48.128;11.376;2024-01-06T05:27:31;1.00;;;0.30;;
9447;SDS011;4762;48.128;11.376;2024-01-06T05:29:33;1.20;;;0.43;;
9447;SDS011;4762;48.128;11.376;2024-01-06T05:31:35;1.50;;;0.60;;
9447;SDS011;4762;48.128;11.376;2024-01-06T05:33:37;1.00;;;0.40;;
9447;SDS011;4762;48.128;11.376;2024-01-06T05:35:39;1.10;;;0.50;;
9447;SDS011;4762;48.128;11.376;2024-01-06T05:37:42;1.00;;;0.40;;
9447;SDS011;4762;48.128;11.376;2024-01-06T05:39:45;1.00;;;0.40;;
9447;SDS011;4762;48.128;11.376;2024-01-06T05:41:47;1.00;;;0.40;;
9447;SDS011;4762;48.128;11.376;2024-01-06T05:43:49;1.00;;;0.40;;
9447;SDS011;4762;48.128;11.376;2024-01-06T05:45:51;1.00;;;0.40;;
9447;SDS011;4762;48.128;11.376;2024-01-06T05:47:53;1.27;;;0.50;;
9447;SDS011;4762;48.128;11.376;2024-01-06T05:49:56;1.30;;;0.40;;
9447;SDS011;4762;48.128;11.376;2024-01-06T05:52:00;1.70;;;0.50;;
9447;SDS011;4762;48.128;11.376;2024-01-06T05:54:02;1.00;;;0.40;;
9447;SDS011;4762;48.128;11.376;2024-01-06T05:56:04;1.00;;;0.50;;
9447;SDS011;4762;48.128;11.376;2024-01-06T05:58:06;1.10;;;0.50;;
9447;SDS011;4762;48.128;11.376;2024-01-06T06:00:09;1.00;;;0.40;;
9447;SDS011;4762;48.128;11.376;2024-01-06T06:02:12;1.20;;;0.50;;
9447;SDS011;4762;48.128;11.376;2024-01-06T06:04:15;1.20;;;0.47;;
9447;SDS011;4762;48.128;11.376;2024-01-06T06:06:17;1.00;;;0.40;;
9447;SDS011;4762;48.128;11.376;2024-01-06T06:08:19;1.00;;;0.40;;
9447;SDS011;4762;48.128;11.376;2024-01-06T06:10:22;1.20;;;0.50;;
9447;SDS011;4762;48.128;11.376;2024-01-06T06:12:24;1.20;;;0.50;;
9447;SDS011;4762;48.128;11.376;2024-01-06T06:14:26;1.60;;;0.87;;
9447;SDS011;4762;48.128;11.376;2024-01-06T06:16:28;1.53;;;0.47;;
9447;SDS011;4762;48.128;11.376;2024-01-06T06:18:31;1.50;;;0.67;;
9447;SDS011;4762;48.128;11.376;2024-01-06T06:20:34;5.53;;;1.33;;
9447;SDS011;4762;48.128;11.376;2024-01-06T06:22:36;2.20;;;1.23;;
9447;SDS011;4762;48.128;11.376;2024-01-06T06:24:38;1.30;;;0.60;;
9447;SDS011;4762;48.128;11.376;2024-01-06T06:26:40;2.47;;;1.23;;
9447;SDS011;4762;48.128;11.376;2024-01-06T06:28:43;1.83;;;0.83;;
9447;SDS011;4762;48.128;11.376;2024-01-06T06:30:45;1.40;;;0.87;;
9447;SDS011;4762;48.128;11.376;2024-01-06T06:32:48;1.77;;;1.23;;
9447;SDS011;4762;48.128;11.376;2024-01-06T06:34:51;1.60;;;1.20;;
9447;SDS011;4762;48.128;11.376;2024-01-06T06:36:52;1.60;;;1.00;;
9447;SDS011;4762;48.128;11.376;2024-01-06T06:38:54;2.07;;;1.10;;
9447;SDS011;4762;48.128;11.376;2024-01-06T06:40:57;1.53;;;1.03;;
9447;SDS011;4762;48.128;11.376;2024-01-06T06:42:59;7.57;;;1.13;;
9447;SDS011;4762;48.128;11.376;2024-01-06T06:45:01;1.83;;;1.03;;
9447;SDS011;4762;48.128;11.376;2024-01-06T06:47:03;2.23;;;1.03;;
9447;SDS011;4762;48.128;11.376;2024-01-06T06:49:05;1.70;;;1.23;;
9447;SDS011;4762;48.128;11.376;2024-01-06T06:51:08;2.30;;;1.00;;
9447;SDS011;4762;48.128;11.376;2024-01-06T06:53:10;1.80;;;1.20;;
9447;SDS011;4762;48.128;11.376;2024-01-06T06:55:12;3.60;;;1.37;;
9447;SDS011;4762;48.128;11.376;2024-01-06T06:57:15;5.77;;;2.83;;
9447;SDS011;4762;48.128;11.376;2024-01-06T06:59:16;2.27;;;1.20;;
9447;SDS011;4762;48.128;11.376;2024-01-06T07:01:20;2.07;;;1.27;;
9447;SDS011;4762;48.128;11.376;2024-01-06T07:03:22;4.00;;;1.50;;
9447;SDS011;4762;48.128;11.376;2024-01-06T07:05:24;2.63;;;1.57;;
9447;SDS011;4762;48.128;11.376;2024-01-06T07:07:27;2.77;;;1.10;;
9447;SDS011;4762;48.128;11.376;2024-01-06T07:09:29;1.70;;;0.90;;
9447;SDS011;4762;48.128;11.376;2024-01-06T07:11:32;1.73;;;0.97;;
9447;SDS011;4762;48.128;11.376;2024-01-06T07:13:35;2.80;;;1.20;;
9447;SDS011;4762;48.128;11.376;2024-01-06T07:15:37;2.40;;;1.30;;
9447;SDS011;4762;48.128;11.376;2024-01-06T07:17:40;1.70;;;1.10;;
9447;SDS011;4762;48.128;11.376;2024-01-06T07:19:42;1.70;;;1.07;;
9447;SDS011;4762;48.128;11.376;2024-01-06T07:21:44;1.20;;;0.90;;
9447;SDS011;4762;48.128;11.376;2024-01-06T07:23:48;1.40;;;1.00;;
9447;SDS011;4762;48.128;11.376;2024-01-06T07:25:50;2.13;;;1.20;;
9447;SDS011;4762;48.128;11.376;2024-01-06T07:27:52;1.67;;;1.07;;
9447;SDS011;4762;48.128;11.376;2024-01-06T07:29:55;3.37;;;1.80;;
9447;SDS011;4762;48.128;11.376;2024-01-06T07:31:57;2.93;;;2.00;;
9447;SDS011;4762;48.128;11.376;2024-01-06T07:33:59;2.37;;;1.93;;
9447;SDS011;4762;48.128;11.376;2024-01-06T07:36:01;3.30;;;1.67;;
9447;SDS011;4762;48.128;11.376;2024-01-06T07:38:03;1.93;;;1.50;;
9447;SDS011;4762;48.128;11.376;2024-01-06T07:40:06;1.80;;;1.40;;
9447;SDS011;4762;48.128;11.376;2024-01-06T07:42:08;2.37;;;1.57;;
9447;SDS011;4762;48.128;11.376;2024-01-06T07:44:10;2.60;;;1.70;;
9447;SDS011;4762;48.128;11.376;2024-01-06T07:46:13;4.27;;;2.10;;
9447;SDS011;4762;48.128;11.376;2024-01-06T07:48:16;6.00;;;2.20;;
9447;SDS011;4762;48.128;11.376;2024-01-06T07:50:19;2.70;;;1.90;;
9447;SDS011;4762;48.128;11.376;2024-01-06T07:52:22;3.37;;;2.00;;
9447;SDS011;4762;48.128;11.376;2024-01-06T07:54:24;2.97;;;1.87;;
9447;SDS011;4762;48.128;11.376;2024-01-06T07:56:27;3.33;;;1.80;;
9447;SDS011;4762;48.128;11.376;2024-01-06T07:58:29;3.57;;;1.93;;
9447;SDS011;4762;48.128;11.376;2024-01-06T08:00:32;2.77;;;2.13;;
9447;SDS011;4762;48.128;11.376;2024-01-06T08:02:34;2.30;;;1.60;;
9447;SDS011;4762;48.128;11.376;2024-01-06T08:04:36;4.40;;;1.60;;
9447;SDS011;4762;48.128;11.376;2024-01-06T08:06:38;1.80;;;1.30;;
9447;SDS011;4762;48.128;11.376;2024-01-06T08:08:41;2.03;;;1.37;;
9447;SDS011;4762;48.128;11.376;2024-01-06T08:10:43;1.50;;;1.37;;
9447;SDS011;4762;48.128;11.376;2024-01-06T08:12:46;2.20;;;1.90;;
9447;SDS011;4762;48.128;11.376;2024-01-06T08:14:48;3.03;;;1.77;;
9447;SDS011;4762;48.128;11.376;2024-01-06T08:16:50;2.50;;;1.83;;
9447;SDS011;4762;48.128;11.376;2024-01-06T08:18:52;3.47;;;1.83;;
9447;SDS011;4762;48.128;11.376;2024-01-06T08:20:54;2.17;;;1.60;;
9447;SDS011;4762;48.128;11.376;2024-01-06T08:22:57;2.77;;;1.70;;
9447;SDS011;4762;48.128;11.376;2024-01-06T08:24:59;3.70;;;2.40;;
9447;SDS011;4762;48.128;11.376;2024-01-06T08:27:02;3.07;;;1.57;;
9447;SDS011;4762;48.128;11.376;2024-01-06T08:29:04;1.50;;;1.27;;
9447;SDS011;4762;48.128;11.376;2024-01-06T08:31:06;2.43;;;1.50;;
9447;SDS011;4762;48.128;11.376;2024-01-06T08:33:08;4.20;;;2.03;;
9447;SDS011;4762;48.128;11.376;2024-01-06T08:35:11;2.27;;;1.57;;
9447;SDS011;4762;48.128;11.376;2024-01-06T08:37:13;2.13;;;1.40;;
9447;SDS011;4762;48.128;11.376;2024-01-06T08:39:18;3.57;;;1.60;;
9447;SDS011;4762;48.128;11.376;2024-01-06T08:41:24;1.63;;;1.27;;
9447;SDS011;4762;48.128;11.376;2024-01-06T08:43:27;2.93;;;2.47;;
9447;SDS011;4762;48.128;11.376;2024-01-06T08:45:29;1.90;;;1.37;;
9447;SDS011;4762;48.128;11.376;2024-01-06T08:47:31;2.50;;;1.63;;
9447;SDS011;4762;48.128;11.376;2024-01-06T08:49:34;2.37;;;1.90;;
9447;SDS011;4762;48.128;11.376;2024-01-06T08:51:36;2.60;;;1.80;;
9447;SDS011;4762;48.128;11.376;2024-01-06T08:53:38;2.80;;;1.90;;
9447;SDS011;4762;48.128;11.376;2024-01-06T08:55:41;1.87;;;1.70;;
9447;SDS011;4762;48.128;11.376;2024-01-06T08:57:45;2.17;;;1.80;;
9447;SDS011;4762;48.128;11.376;2024-01-06T08:59:48;2.70;;;1.93;;
9447;SDS011;4762;48.128;11.376;2024-01-06T09:01:51;3.80;;;1.70;;
9447;SDS011;4762;48.128;11.376;2024-01-06T09:03:54;3.93;;;2.10;;
9447;SDS011;4762;48.128;11.376;2024-01-06T09:05:56;4.07;;;2.33;;
9447;SDS011;4762;48.128;11.376;2024-01-06T09:07:58;3.03;;;2.37;;
9447;SDS011;4762;48.128;11.376;2024-01-06T09:10:03;4.43;;;2.23;;
9447;SDS011;4762;48.128;11.376;2024-01-06T09:12:07;5.20;;;3.30;;
9447;SDS011;4762;48.128;11.376;2024-01-06T09:14:11;3.30;;;2.67;;
9447;SDS011;4762;48.128;11.376;2024-01-06T09:16:13;5.00;;;3.00;;
9447;SDS011;4762;48.128;11.376;2024-01-06T09:18:15;7.00;;;4.23;;
9447;SDS011;4762;48.128;11.376;2024-01-06T09:20:18;4.63;;;3.70;;
9447;SDS011;4762;48.128;11.376;2024-01-06T09:22:21;4.17;;;2.93;;
9447;SDS011;4762;48.128;11.376;2024-01-06T09:24:23;10.03;;;4.23;;
9447;SDS011;4762;48.128;11.376;2024-01-06T09:26:25;11.17;;;3.73;;
9447;SDS011;4762;48.128;11.376;2024-01-06T09:28:27;9.17;;;3.93;;
9447;SDS011;4762;48.128;11.376;2024-01-06T09:30:29;5.80;;;3.30;;
9447;SDS011;4762;48.128;11.376;2024-01-06T09:32:32;4.13;;;2.97;;
9447;SDS011;4762;48.128;11.376;2024-01-06T09:34:34;5.80;;;3.37;;
9447;SDS011;4762;48.128;11.376;2024-01-06T09:36:36;4.30;;;3.00;;
9447;SDS011;4762;48.128;11.376;2024-01-06T09:38:38;4.60;;;2.70;;
9447;SDS011;4762;48.128;11.376;2024-01-06T09:40:41;4.07;;;2.20;;
9447;SDS011;4762;48.128;11.376;2024-01-06T09:42:43;3.10;;;2.03;;
9447;SDS011;4762;48.128;11.376;2024-01-06T09:44:45;4.23;;;2.33;;
9447;SDS011;4762;48.128;11.376;2024-01-06T09:46:47;4.40;;;2.67;;
9447;SDS011;4762;48.128;11.376;2024-01-06T09:48:49;10.00;;;3.67;;
9447;SDS011;4762;48.128;11.376;2024-01-06T09:50:51;3.20;;;2.50;;
9447;SDS011;4762;48.128;11.376;2024-01-06T09:52:54;3.57;;;1.70;;
9447;SDS011;4762;48.128;11.376;2024-01-06T09:54:56;2.97;;;1.80;;
9447;SDS011;4762;48.128;11.376;2024-01-06T09:56:58;2.30;;;1.77;;
9447;SDS011;4762;48.128;11.376;2024-01-06T09:59:01;1.90;;;1.43;;
9447;SDS011;4762;48.128;11.376;2024-01-06T10:01:02;3.10;;;2.00;;
9447;SDS011;4762;48.128;11.376;2024-01-06T10:03:05;1.67;;;1.33;;
9447;SDS011;4762;48.128;11.376;2024-01-06T10:05:07;2.30;;;1.63;;
9447;SDS011;4762;48.128;11.376;2024-01-06T10:07:10;4.43;;;2.07;;
9447;SDS011;4762;48.128;11.376;2024-01-06T10:09:11;4.87;;;1.80;;
9447;SDS011;4762;48.128;11.376;2024-01-06T10:11:14;2.80;;;2.10;;
9447;SDS011;4762;48.128;11.376;2024-01-06T10:13:16;4.70;;;1.97;;
9447;SDS011;4762;48.128;11.376;2024-01-06T10:15:18;5.93;;;2.40;;
9447;SDS011;4762;48.128;11.376;2024-01-06T10:17:21;2.77;;;1.90;;
9447;SDS011;4762;48.128;11.376;2024-01-06T10:19:23;4.60;;;2.50;;
9447;SDS011;4762;48.128;11.376;2024-01-06T10:21:26;4.00;;;2.03;;
9447;SDS011;4762;48.128;11.376;2024-01-06T10:23:28;4.13;;;2.20;;
9447;SDS011;4762;48.128;11.376;2024-01-06T10:25:30;2.77;;;1.60;;
9447;SDS011;4762;48.128;11.376;2024-01-06T10:27:35;6.00;;;2.10;;
9447;SDS011;4762;48.128;11.376;2024-01-06T10:29:37;8.20;;;2.67;;
9447;SDS011;4762;48.128;11.376;2024-01-06T10:31:39;3.13;;;2.10;;
9447;SDS011;4762;48.128;11.376;2024-01-06T10:33:42;4.63;;;2.60;;
9447;SDS011;4762;48.128;11.376;2024-01-06T10:35:44;4.10;;;2.67;;
9447;SDS011;4762;48.128;11.376;2024-01-06T10:37:47;3.10;;;2.23;;
9447;SDS011;4762;48.128;11.376;2024-01-06T10:39:48;3.80;;;2.50;;
9447;SDS011;4762;48.128;11.376;2024-01-06T10:41:50;5.57;;;2.27;;
9447;SDS011;4762;48.128;11.376;2024-01-06T10:43:53;2.30;;;1.90;;
9447;SDS011;4762;48.128;11.376;2024-01-06T10:45:56;3.30;;;2.13;;
9447;SDS011;4762;48.128;11.376;2024-01-06T10:47:58;3.33;;;2.63;;
9447;SDS011;4762;48.128;11.376;2024-01-06T10:50:00;5.60;;;2.60;;
9447;SDS011;4762;48.128;11.376;2024-01-06T10:52:02;3.90;;;1.90;;
9447;SDS011;4762;48.128;11.376;2024-01-06T10:54:05;3.90;;;2.83;;
9447;SDS011;4762;48.128;11.376;2024-01-06T10:56:07;3.63;;;2.50;;
9447;SDS011;4762;48.128;11.376;2024-01-06T10:58:09;5.73;;;2.73;;
9447;SDS011;4762;48.128;11.376;2024-01-06T11:00:12;7.40;;;2.53;;
9447;SDS011;4762;48.128;11.376;2024-01-06T11:02:14;4.20;;;3.00;;
9447;SDS011;4762;48.128;11.376;2024-01-06T11:04:17;2.40;;;1.87;;
9447;SDS011;4762;48.128;11.376;2024-01-06T11:06:19;3.60;;;2.53;;
9447;SDS011;4762;48.128;11.376;2024-01-06T11:08:21;11.23;;;2.80;;
9447;SDS011;4762;48.128;11.376;2024-01-06T11:10:23;3.83;;;2.70;;
9447;SDS011;4762;48.128;11.376;2024-01-06T11:12:25;3.23;;;2.10;;
9447;SDS011;4762;48.128;11.376;2024-01-06T11:14:28;7.27;;;3.37;;
9447;SDS011;4762;48.128;11.376;2024-01-06T11:16:33;4.33;;;2.63;;
9447;SDS011;4762;48.128;11.376;2024-01-06T11:18:35;5.27;;;2.67;;
9447;SDS011;4762;48.128;11.376;2024-01-06T11:20:37;5.77;;;2.97;;
9447;SDS011;4762;48.128;11.376;2024-01-06T11:22:39;6.47;;;4.50;;
9447;SDS011;4762;48.128;11.376;2024-01-06T11:24:41;5.20;;;2.73;;
9447;SDS011;4762;48.128;11.376;2024-01-06T11:26:44;8.37;;;4.10;;
9447;SDS011;4762;48.128;11.376;2024-01-06T11:28:46;4.90;;;3.07;;
9447;SDS011;4762;48.128;11.376;2024-01-06T11:31:04;4.80;;;2.67;;
9447;SDS011;4762;48.128;11.376;2024-01-06T11:32:51;8.40;;;2.47;;
9447;SDS011;4762;48.128;11.376;2024-01-06T11:34:54;6.43;;;3.37;;
9447;SDS011;4762;48.128;11.376;2024-01-06T11:36:55;4.80;;;3.23;;
9447;SDS011;4762;48.128;11.376;2024-01-06T11:38:58;3.33;;;2.70;;
9447;SDS011;4762;48.128;11.376;2024-01-06T11:41:00;5.43;;;2.77;;
9447;SDS011;4762;48.128;11.376;2024-01-06T11:43:03;4.67;;;2.87;;
9447;SDS011;4762;48.128;11.376;2024-01-06T11:45:06;7.07;;;4.27;;
9447;SDS011;4762;48.128;11.376;2024-01-06T11:47:10;4.53;;;3.33;;
9447;SDS011;4762;48.128;11.376;2024-01-06T11:49:11;11.67;;;3.80;;
9447;SDS011;4762;48.128;11.376;2024-01-06T11:51:13;6.87;;;3.90;;
9447;SDS011;4762;48.128;11.376;2024-01-06T11:53:16;4.27;;;3.13;;
9447;SDS011;4762;48.128;11.376;2024-01-06T11:55:18;4.10;;;2.80;;
9447;SDS011;4762;48.128;11.376;2024-01-06T11:57:20;6.07;;;4.57;;
9447;SDS011;4762;48.128;11.376;2024-01-06T11:59:22;4.50;;;2.43;;
9447;SDS011;4762;48.128;11.376;2024-01-06T12:01:24;6.37;;;3.60;;
9447;SDS011;4762;48.128;11.376;2024-01-06T12:03:27;3.60;;;2.60;;
9447;SDS011;4762;48.128;11.376;2024-01-06T12:05:29;9.17;;;4.30;;
9447;SDS011;4762;48.128;11.376;2024-01-06T12:07:31;5.60;;;3.17;;
9447;SDS011;4762;48.128;11.376;2024-01-06T12:09:33;6.43;;;3.77;;
9447;SDS011;4762;48.128;11.376;2024-01-06T12:11:35;16.70;;;4.20;;
9447;SDS011;4762;48.128;11.376;2024-01-06T12:13:38;6.87;;;3.30;;
9447;SDS011;4762;48.128;11.376;2024-01-06T12:15:41;9.10;;;4.33;;
9447;SDS011;4762;48.128;11.376;2024-01-06T12:17:43;4.60;;;3.30;;
9447;SDS011;4762;48.128;11.376;2024-01-06T12:19:45;6.07;;;4.20;;
9447;SDS011;4762;48.128;11.376;2024-01-06T12:21:48;4.27;;;3.37;;
9447;SDS011;4762;48.128;11.376;2024-01-06T12:23:51;5.17;;;3.57;;
9447;SDS011;4762;48.128;11.376;2024-01-06T12:25:54;4.27;;;3.60;;
9447;SDS011;4762;48.128;11.376;2024-01-06T12:27:56;7.93;;;3.33;;